Time;durP1;ratioP1;P1;durP2;ratioP2;P2;SDS_P1;SDS_P2;PMS_P1;PMS_P2;Temp;Humidity;BMP_temperature;BMP_pressure;BME280_temperature;BME280_humidity;BME280_pressure;Samples;Min_cycle;Max_cycle;Signal;HPM_P1;HPM_P2
2023/01/22 00:00:13;;;;;;;20.53;16.07;;;1.20;99.90;;;;;;5034655;28;20279;-70
2023/01/22 00:02:38;;;;;;;20.00;15.67;;;1.20;99.90;;;;;;5052457;28;20212;-70
2023/01/22 00:05:04;;;;;;;21.80;16.90;;;1.20;99.90;;;;;;5073176;28;20891;-70
2023/01/22 00:07:30;;;;;;;19.97;15.93;;;1.10;99.90;;;;;;5076421;28;20177;-71
2023/01/22 00:09:56;;;;;;;20.67;17.07;;;1.10;99.90;;;;;;5058529;28;20509;-71
2023/01/22 00:12:21;;;;;;;21.20;15.73;;;1.20;99.90;;;;;;5076706;28;20170;-71
2023/01/22 00:14:48;;;;;;;17.27;13.60;;;1.30;99.90;;;;;;5076910;28;20248;-71
2023/01/22 00:17:14;;;;;;;21.60;15.97;;;1.40;99.90;;;;;;5076565;28;20162;-71
2023/01/22 00:19:39;;;;;;;17.80;14.53;;;1.40;99.90;;;;;;5075652;28;20441;-70
2023/01/22 00:22:05;;;;;;;17.00;14.73;;;1.40;99.90;;;;;;5076253;28;20192;-70
2023/01/22 00:24:31;;;;;;;19.60;15.17;;;1.30;99.90;;;;;;5076138;28;20162;-70
2023/01/22 00:26:57;;;;;;;17.67;14.23;;;1.30;99.90;;;;;;5076018;28;20411;-70
2023/01/22 00:29:22;;;;;;;19.47;14.67;;;1.30;99.90;;;;;;5076036;28;20220;-70
2023/01/22 00:31:48;;;;;;;20.00;14.73;;;1.40;99.90;;;;;;5076335;28;20173;-70
2023/01/22 00:34:13;;;;;;;19.03;15.80;;;1.30;99.90;;;;;;5075603;28;20170;-71
2023/01/22 00:36:40;;;;;;;19.57;15.27;;;1.30;99.90;;;;;;5058389;28;20158;-70
2023/01/22 00:39:05;;;;;;;21.73;15.97;;;1.30;99.90;;;;;;5076237;28;20173;-70
2023/01/22 00:41:31;;;;;;;20.50;16.40;;;1.30;99.90;;;;;;5058378;28;20425;-70
2023/01/22 00:43:57;;;;;;;17.90;14.80;;;1.30;99.90;;;;;;5057828;28;20177;-70
2023/01/22 00:46:22;;;;;;;19.80;15.37;;;1.30;99.90;;;;;;5076207;28;20189;-72
2023/01/22 00:48:49;;;;;;;20.00;16.67;;;1.50;99.90;;;;;;5057627;28;20268;-70
2023/01/22 00:51:15;;;;;;;21.50;16.40;;;1.40;99.90;;;;;;5076222;28;20247;-70
2023/01/22 00:53:41;;;;;;;19.07;14.87;;;1.40;99.90;;;;;;5075716;28;20393;-70
2023/01/22 00:56:07;;;;;;;16.63;14.03;;;1.40;99.90;;;;;;5075931;28;20809;-70
2023/01/22 00:58:33;;;;;;;17.10;14.13;;;1.40;99.90;;;;;;5075621;28;20440;-71
2023/01/22 01:01:02;;;;;;;17.37;13.20;;;1.50;99.90;;;;;;5075480;28;20511;-70
2023/01/22 01:03:31;;;;;;;16.13;13.50;;;1.50;99.90;;;;;;5057335;28;20192;-70
2023/01/22 01:05:58;;;;;;;17.40;14.27;;;1.40;99.90;;;;;;5075109;28;20472;-70
2023/01/22 01:08:25;;;;;;;18.67;13.77;;;1.30;99.90;;;;;;5057307;28;20404;-71
2023/01/22 01:10:58;;;;;;;19.43;14.20;;;1.30;99.90;;;;;;5075252;28;20448;-71
2023/01/22 01:13:25;;;;;;;16.43;14.63;;;1.50;99.90;;;;;;5075619;28;20392;-71
2023/01/22 01:15:59;;;;;;;18.57;14.37;;;1.50;99.90;;;;;;5056252;28;20415;-70
2023/01/22 01:18:24;;;;;;;15.57;13.50;;;1.40;99.90;;;;;;5075270;28;20438;-70
2023/01/22 01:20:59;;;;;;;16.87;14.50;;;1.60;99.90;;;;;;5075269;28;20420;-70
2023/01/22 01:23:27;;;;;;;16.57;13.93;;;1.60;99.90;;;;;;5074776;28;20659;-70
2023/01/22 01:25:54;;;;;;;22.70;15.30;;;1.60;99.90;;;;;;5075178;28;20408;-70
2023/01/22 01:28:19;;;;;;;17.27;13.87;;;1.50;99.90;;;;;;5057359;28;20405;-70
2023/01/22 01:30:45;;;;;;;17.60;14.40;;;1.70;99.90;;;;;;5074957;28;20535;-70
2023/01/22 01:33:11;;;;;;;17.97;14.80;;;1.60;99.90;;;;;;5075439;28;20170;-70
2023/01/22 01:35:36;;;;;;;19.83;14.80;;;1.70;99.90;;;;;;5073198;28;20492;-70
2023/01/22 01:38:03;;;;;;;17.27;14.07;;;1.60;99.90;;;;;;5074740;28;20181;-70
2023/01/22 01:40:28;;;;;;;18.00;13.53;;;1.60;99.90;;;;;;5075686;28;20668;-70
2023/01/22 01:42:54;;;;;;;17.87;13.50;;;1.40;99.90;;;;;;5075302;28;20407;-70
2023/01/22 01:45:47;;;;;;;15.40;12.80;;;1.50;99.90;;;;;;5074962;28;20487;-70
2023/01/22 01:48:34;;;;;;;18.53;13.57;;;1.60;99.90;;;;;;5071115;28;20552;-70
2023/01/22 01:51:24;;;;;;;17.13;13.20;;;1.60;99.90;;;;;;5063927;28;20838;-70
2023/01/22 01:53:51;;;;;;;16.67;12.97;;;1.70;99.90;;;;;;5054766;28;20382;-70
2023/01/22 01:56:22;;;;;;;18.50;14.57;;;1.70;99.90;;;;;;5054517;28;20408;-70
2023/01/22 01:58:52;;;;;;;20.87;15.93;;;1.80;99.90;;;;;;5054486;28;20464;-70
2023/01/22 02:01:18;;;;;;;18.43;14.07;;;1.80;99.90;;;;;;5054372;28;20786;-70
2023/01/22 02:03:45;;;;;;;15.07;13.23;;;1.60;99.90;;;;;;5056564;28;20413;-70
2023/01/22 02:06:16;;;;;;;17.60;14.43;;;1.70;99.90;;;;;;5073642;28;20412;-70
2023/01/22 02:08:47;;;;;;;19.10;13.90;;;1.70;99.90;;;;;;5056343;28;20837;-71
2023/01/22 02:11:14;;;;;;;20.77;14.90;;;1.90;99.90;;;;;;5074026;28;20788;-71
2023/01/22 02:13:46;;;;;;;17.10;13.77;;;2.10;99.90;;;;;;5074189;28;20397;-71
2023/01/22 02:16:11;;;;;;;14.80;11.80;;;2.00;99.90;;;;;;5074800;28;20871;-70
2023/01/22 02:18:37;;;;;;;19.30;14.20;;;2.10;99.90;;;;;;5073934;28;20474;-70
2023/01/22 02:21:23;;;;;;;15.00;13.20;;;2.10;99.90;;;;;;5073379;28;20224;-70
2023/01/22 02:23:49;;;;;;;17.20;13.97;;;1.70;99.90;;;;;;5074221;28;20224;-71
2023/01/22 02:26:14;;;;;;;18.23;13.77;;;1.90;99.90;;;;;;5074214;28;20404;-70
2023/01/22 02:28:40;;;;;;;19.47;15.20;;;2.10;99.90;;;;;;5055680;28;20170;-70
2023/01/22 02:31:05;;;;;;;15.20;13.30;;;2.00;99.90;;;;;;5074066;28;20201;-70
2023/01/22 02:33:31;;;;;;;16.67;13.03;;;2.10;99.90;;;;;;5055956;28;20166;-71
2023/01/22 02:35:56;;;;;;;19.77;14.63;;;2.00;99.90;;;;;;5072327;28;20174;-71
2023/01/22 02:38:22;;;;;;;17.67;14.23;;;1.90;99.90;;;;;;5055816;28;20162;-71
2023/01/22 02:40:50;;;;;;;17.47;14.00;;;1.80;99.90;;;;;;5073538;28;20190;-70
2023/01/22 02:43:16;;;;;;;17.30;14.43;;;1.70;99.90;;;;;;5073959;28;20166;-70
2023/01/22 02:45:42;;;;;;;16.50;13.47;;;1.70;99.90;;;;;;5055837;28;20408;-69
2023/01/22 02:48:07;;;;;;;18.67;15.50;;;1.70;99.90;;;;;;5073626;28;20423;-70
2023/01/22 02:50:33;;;;;;;17.90;14.57;;;1.70;99.90;;;;;;5073115;28;20292;-70
2023/01/22 02:52:58;;;;;;;17.53;15.73;;;1.80;99.90;;;;;;5073638;28;20173;-69
2023/01/22 02:55:24;;;;;;;17.67;14.00;;;2.00;99.90;;;;;;5073532;28;20172;-69
2023/01/22 02:57:49;;;;;;;18.73;14.10;;;2.10;99.90;;;;;;5073605;28;20208;-70
2023/01/22 03:00:15;;;;;;;18.40;15.10;;;2.10;99.90;;;;;;5074004;28;20525;-71
2023/01/22 03:02:41;;;;;;;13.10;11.70;;;2.20;99.90;;;;;;5073447;28;20205;-71
2023/01/22 03:05:06;;;;;;;16.70;13.43;;;2.10;99.90;;;;;;5072798;28;20568;-70
2023/01/22 03:07:41;;;;;;;17.80;14.77;;;2.10;99.90;;;;;;5056267;28;20201;-81
2023/01/22 03:10:10;;;;;;;18.77;14.87;;;2.10;99.90;;;;;;5056209;28;20228;-71
2023/01/22 03:23:32;;;;;;;17.20;14.37;;;2.10;99.90;;;;;;5075174;28;20893;-71
2023/01/22 03:25:57;;;;;;;15.80;12.77;;;2.10;99.90;;;;;;5073819;28;20499;-70
2023/01/22 03:28:23;;;;;;;16.33;13.10;;;2.20;99.90;;;;;;5073127;28;20633;-69
2023/01/22 03:30:49;;;;;;;16.53;12.70;;;2.30;99.90;;;;;;5055151;28;20202;-70
2023/01/22 03:33:14;;;;;;;16.73;14.17;;;2.30;99.90;;;;;;5072903;28;20173;-70
2023/01/22 03:35:40;;;;;;;15.47;12.63;;;2.20;99.90;;;;;;5072748;28;20170;-70
2023/01/22 03:38:05;;;;;;;17.60;14.10;;;2.10;99.90;;;;;;5073097;28;20181;-70
2023/01/22 03:40:31;;;;;;;15.80;12.57;;;2.10;99.90;;;;;;5074499;28;20181;-69
2023/01/22 03:42:57;;;;;;;22.47;14.80;;;2.20;99.90;;;;;;5040296;28;20178;-73
2023/01/22 03:45:22;;;;;;;15.27;13.37;;;1.80;99.90;;;;;;5056746;28;20205;-70
2023/01/22 03:47:50;;;;;;;17.63;13.20;;;1.80;99.90;;;;;;5056659;28;20487;-70
2023/01/22 03:50:15;;;;;;;16.40;13.60;;;1.80;99.90;;;;;;5055906;28;20221;-70
2023/01/22 03:52:41;;;;;;;20.27;14.17;;;1.90;99.90;;;;;;5056925;28;20548;-70
2023/01/22 03:55:07;;;;;;;15.23;13.00;;;1.90;99.90;;;;;;5040931;28;20182;-70
2023/01/22 03:57:32;;;;;;;17.27;14.77;;;2.00;99.90;;;;;;5056773;28;20174;-70
2023/01/22 04:00:00;;;;;;;17.33;13.80;;;1.80;99.90;;;;;;5056476;28;20912;-70
2023/01/22 04:02:29;;;;;;;16.10;12.87;;;1.70;99.90;;;;;;5056406;28;20174;-70
2023/01/22 04:04:54;;;;;;;15.77;12.07;;;1.90;99.90;;;;;;5062134;28;20443;-70
2023/01/22 04:07:20;;;;;;;16.23;14.13;;;2.10;99.90;;;;;;5076392;28;20864;-70
2023/01/22 04:09:45;;;;;;;16.20;13.00;;;2.20;99.90;;;;;;5076104;28;20201;-70
2023/01/22 04:12:11;;;;;;;15.77;12.73;;;2.20;99.90;;;;;;5076587;28;20249;-70
2023/01/22 04:14:37;;;;;;;16.17;14.00;;;2.10;99.90;;;;;;5076147;28;20169;-70
2023/01/22 04:17:02;;;;;;;16.37;12.67;;;2.10;99.90;;;;;;5075953;28;20177;-70
2023/01/22 04:19:28;;;;;;;18.30;14.87;;;2.00;99.90;;;;;;5075440;28;20322;-70
2023/01/22 04:21:53;;;;;;;14.27;12.17;;;2.00;99.90;;;;;;5075669;28;20540;-70
2023/01/22 04:24:19;;;;;;;15.47;13.00;;;2.20;99.90;;;;;;5075769;28;20166;-70
2023/01/22 04:26:45;;;;;;;16.40;13.10;;;2.10;99.90;;;;;;5075873;28;20174;-70
2023/01/22 04:29:10;;;;;;;14.87;13.33;;;2.00;99.90;;;;;;5076404;28;20551;-70
2023/01/22 04:31:36;;;;;;;16.80;13.40;;;2.20;99.90;;;;;;5075809;28;20490;-69
2023/01/22 04:34:01;;;;;;;16.30;13.60;;;2.20;99.90;;;;;;5058926;28;20261;-69
2023/01/22 04:36:27;;;;;;;18.67;14.30;;;2.10;99.90;;;;;;5073687;28;20239;-69
2023/01/22 04:38:52;;;;;;;19.80;15.53;;;1.90;99.90;;;;;;5057760;28;20174;-69
2023/01/22 04:41:18;;;;;;;23.20;15.50;;;2.00;99.90;;;;;;5075571;28;20204;-69
2023/01/22 04:43:43;;;;;;;25.63;16.67;;;1.90;99.90;;;;;;5075893;28;20166;-69
2023/01/22 04:46:09;;;;;;;35.57;20.90;;;2.00;99.90;;;;;;5075493;28;20742;-69
2023/01/22 04:48:34;;;;;;;20.57;15.03;;;2.10;99.90;;;;;;5075329;28;20613;-69
2023/01/22 04:51:00;;;;;;;24.97;16.07;;;2.20;99.90;;;;;;5056735;28;20707;-69
2023/01/22 04:53:26;;;;;;;25.10;15.57;;;2.30;99.90;;;;;;5075493;28;20624;-69
2023/01/22 04:55:51;;;;;;;20.30;15.53;;;2.30;99.90;;;;;;5057610;28;20177;-69
2023/01/22 04:58:17;;;;;;;21.83;17.20;;;2.50;99.90;;;;;;5076599;28;20174;-69
2023/01/22 05:00:42;;;;;;;19.33;17.23;;;2.60;99.90;;;;;;5075607;28;20186;-69
2023/01/22 05:03:09;;;;;;;18.07;13.97;;;2.40;99.90;;;;;;5075249;28;20211;-70
2023/01/22 05:05:35;;;;;;;17.23;13.60;;;2.30;99.90;;;;;;5074730;28;20216;-70
2023/01/22 05:08:00;;;;;;;20.07;14.13;;;2.50;99.90;;;;;;5075211;28;20412;-69
2023/01/22 05:10:26;;;;;;;18.53;15.60;;;2.30;99.90;;;;;;5074884;28;20210;-69
2023/01/22 05:12:52;;;;;;;17.90;14.90;;;2.30;99.90;;;;;;5075356;28;20176;-69
2023/01/22 05:15:17;;;;;;;16.77;13.87;;;2.30;99.90;;;;;;5057045;28;20170;-69
2023/01/22 05:17:43;;;;;;;15.30;13.70;;;2.50;99.90;;;;;;5075543;28;20167;-69
2023/01/22 05:20:09;;;;;;;18.00;14.50;;;2.30;99.90;;;;;;5075485;28;20232;-69
2023/01/22 05:22:35;;;;;;;18.63;13.73;;;2.20;99.90;;;;;;5074729;28;20198;-70
2023/01/22 05:25:00;;;;;;;16.77;14.30;;;2.30;99.90;;;;;;5077860;28;20473;-69
2023/01/22 05:27:26;;;;;;;17.53;14.60;;;2.50;99.90;;;;;;5078007;28;20186;-69
2023/01/22 05:29:52;;;;;;;17.90;15.20;;;2.70;99.90;;;;;;5060001;28;20213;-69
2023/01/22 05:32:17;;;;;;;16.27;14.33;;;2.50;99.90;;;;;;5078770;28;20239;-70
2023/01/22 05:34:43;;;;;;;18.13;13.57;;;2.20;99.90;;;;;;5059038;28;20166;-69
2023/01/22 05:37:08;;;;;;;17.50;14.27;;;2.00;99.90;;;;;;5074516;28;20173;-70
2023/01/22 05:39:34;;;;;;;15.93;13.30;;;1.80;99.90;;;;;;5076249;28;20193;-70
2023/01/22 05:41:59;;;;;;;18.40;13.70;;;1.70;99.90;;;;;;5077130;28;20196;-70
2023/01/22 05:44:25;;;;;;;18.50;11.87;;;1.80;99.90;;;;;;5076201;28;20162;-70
2023/01/22 05:46:51;;;;;;;17.33;14.37;;;2.00;99.90;;;;;;5073767;28;20167;-69
2023/01/22 05:49:16;;;;;;;18.60;14.57;;;2.00;99.90;;;;;;5054797;28;20174;-69
2023/01/22 05:51:42;;;;;;;18.60;13.70;;;1.90;99.90;;;;;;5036036;28;21040;-69
2023/01/22 05:54:08;;;;;;;21.50;15.23;;;2.00;99.90;;;;;;5054834;28;20170;-69
2023/01/22 05:56:33;;;;;;;19.47;13.63;;;2.20;99.90;;;;;;5036567;28;20198;-69
2023/01/22 05:58:59;;;;;;;17.80;14.53;;;2.20;99.90;;;;;;5054934;28;20174;-69
2023/01/22 06:01:25;;;;;;;17.83;14.33;;;2.40;99.90;;;;;;5054046;28;20197;-69
2023/01/22 06:03:51;;;;;;;20.87;13.40;;;2.30;99.90;;;;;;5056687;28;20219;-69
2023/01/22 06:06:16;;;;;;;17.03;13.57;;;2.20;99.90;;;;;;5062912;28;20447;-68
2023/01/22 06:08:42;;;;;;;16.90;14.10;;;2.30;99.90;;;;;;5074169;28;20231;-68
2023/01/22 06:11:11;;;;;;;18.60;14.80;;;2.50;99.90;;;;;;5073903;28;20597;-68
2023/01/22 06:13:37;;;;;;;17.80;14.50;;;2.60;99.90;;;;;;5055808;28;20223;-68
2023/01/22 06:16:04;;;;;;;20.97;16.07;;;2.80;99.90;;;;;;5073691;28;20412;-69
2023/01/22 06:18:30;;;;;;;20.40;15.10;;;3.00;99.90;;;;;;5073548;28;20401;-69
2023/01/22 06:21:00;;;;;;;18.60;14.40;;;2.80;99.90;;;;;;5055528;28;20860;-69
2023/01/22 06:23:26;;;;;;;21.10;16.77;;;2.60;99.90;;;;;;5074006;28;20247;-69
2023/01/22 06:25:53;;;;;;;17.30;13.63;;;2.70;99.90;;;;;;5073993;28;20471;-69
2023/01/22 06:28:20;;;;;;;17.93;14.73;;;2.30;99.90;;;;;;5073881;28;20407;-69
2023/01/22 06:30:45;;;;;;;21.73;16.00;;;2.30;99.90;;;;;;5073693;28;21059;-69
2023/01/22 06:33:12;;;;;;;21.53;17.40;;;2.40;99.90;;;;;;5073734;28;20438;-69
2023/01/22 06:35:37;;;;;;;23.87;18.73;;;2.30;99.90;;;;;;5072676;28;20675;-68
2023/01/22 06:38:03;;;;;;;20.77;15.37;;;2.30;99.90;;;;;;5073113;28;20401;-68
2023/01/22 06:40:29;;;;;;;19.27;14.97;;;2.20;99.90;;;;;;5073334;28;20193;-68
2023/01/22 06:42:56;;;;;;;22.10;17.00;;;2.30;99.90;;;;;;5073183;28;20519;-68
2023/01/22 06:45:22;;;;;;;20.97;15.10;;;2.20;99.90;;;;;;5073544;28;20166;-70
2023/01/22 06:47:48;;;;;;;18.37;15.13;;;2.00;99.90;;;;;;5073987;28;20455;-69
2023/01/22 06:50:13;;;;;;;22.10;16.47;;;1.70;99.90;;;;;;5073472;28;20491;-69
2023/01/22 06:52:39;;;;;;;22.63;15.77;;;1.60;99.90;;;;;;5073352;28;20694;-68
2023/01/22 06:55:05;;;;;;;19.50;14.57;;;1.70;99.90;;;;;;5073412;28;20208;-68
2023/01/22 06:57:30;;;;;;;19.03;14.57;;;1.80;99.90;;;;;;5055676;28;20174;-71
2023/01/22 06:59:56;;;;;;;20.03;14.70;;;1.90;99.90;;;;;;5073900;28;20198;-69
2023/01/22 07:02:21;;;;;;;18.27;15.00;;;2.00;99.90;;;;;;5074495;28;20546;-70
2023/01/22 07:04:47;;;;;;;21.40;16.20;;;2.10;99.90;;;;;;5075038;28;20624;-70
2023/01/22 07:07:13;;;;;;;23.67;17.60;;;2.40;99.90;;;;;;5073561;28;20551;-69
2023/01/22 07:09:38;;;;;;;22.97;17.33;;;2.50;99.90;;;;;;5073882;28;20189;-69
2023/01/22 07:12:04;;;;;;;19.50;15.20;;;2.60;99.90;;;;;;5073565;28;20466;-68
2023/01/22 07:14:30;;;;;;;21.13;15.67;;;2.70;99.90;;;;;;5056025;28;20660;-68
2023/01/22 07:16:55;;;;;;;20.13;15.50;;;2.80;99.90;;;;;;5073222;28;20184;-68
2023/01/22 07:19:21;;;;;;;23.17;17.73;;;2.80;99.90;;;;;;5073269;28;20182;-68
2023/01/22 07:21:47;;;;;;;18.93;15.57;;;2.90;99.90;;;;;;5072706;28;20714;-68
2023/01/22 07:24:13;;;;;;;20.90;16.17;;;2.90;99.90;;;;;;5073547;28;20178;-70
2023/01/22 07:26:38;;;;;;;23.43;17.63;;;2.80;99.90;;;;;;5073538;28;20181;-69
2023/01/22 07:29:04;;;;;;;20.50;15.30;;;2.70;99.90;;;;;;5073211;28;20194;-68
2023/01/22 07:31:30;;;;;;;22.77;17.63;;;2.80;99.90;;;;;;5055390;28;20205;-70
2023/01/22 07:33:55;;;;;;;21.60;16.27;;;2.90;99.90;;;;;;5055508;28;20174;-70
2023/01/22 07:36:21;;;;;;;18.80;16.00;;;3.10;99.90;;;;;;5071085;28;20253;-71
2023/01/22 07:38:46;;;;;;;20.10;15.43;;;3.10;99.90;;;;;;5044720;28;20170;-68
2023/01/22 07:41:12;;;;;;;23.40;17.77;;;3.00;99.90;;;;;;5052727;28;20186;-69
2023/01/22 07:43:38;;;;;;;20.77;17.10;;;3.10;99.90;;;;;;5053002;28;20638;-68
2023/01/22 07:46:05;;;;;;;19.97;16.50;;;3.10;99.90;;;;;;5052918;28;20171;-69
2023/01/22 07:48:31;;;;;;;21.07;15.80;;;3.20;99.90;;;;;;5052727;28;20171;-69
2023/01/22 07:51:01;;;;;;;20.37;16.47;;;3.20;99.90;;;;;;5052473;28;21073;-69
2023/01/22 07:53:27;;;;;;;21.57;16.50;;;3.20;99.90;;;;;;5052395;28;20248;-69
2023/01/22 07:55:53;;;;;;;25.00;18.80;;;3.10;99.90;;;;;;5034655;28;20451;-69
2023/01/22 07:58:19;;;;;;;20.73;15.10;;;3.10;99.90;;;;;;5053040;28;20408;-69
2023/01/22 08:00:44;;;;;;;22.33;16.80;;;3.20;99.90;;;;;;5036961;28;20432;-70
2023/01/22 08:03:12;;;;;;;21.70;17.10;;;3.20;99.90;;;;;;5052671;28;20171;-69
2023/01/22 08:05:38;;;;;;;21.70;16.50;;;3.40;99.90;;;;;;5052383;28;20171;-69
2023/01/22 08:08:05;;;;;;;22.83;18.53;;;3.40;99.90;;;;;;5070690;28;20420;-69
2023/01/22 08:10:30;;;;;;;18.93;15.03;;;3.10;99.90;;;;;;5054496;28;20455;-70
2023/01/22 08:12:56;;;;;;;18.97;14.80;;;3.00;99.90;;;;;;5072893;28;20408;-69
2023/01/22 08:15:22;;;;;;;20.03;15.57;;;3.10;99.90;;;;;;5072695;28;20197;-69
2023/01/22 08:17:49;;;;;;;24.40;18.33;;;3.00;99.90;;;;;;5072521;28;20250;-69
2023/01/22 08:20:15;;;;;;;21.70;16.60;;;2.90;99.90;;;;;;5072668;28;20255;-69
2023/01/22 08:22:40;;;;;;;20.87;16.00;;;2.90;99.90;;;;;;5071852;28;20408;-69
2023/01/22 08:25:06;;;;;;;22.13;16.30;;;2.80;99.90;;;;;;5073287;28;20461;-69
2023/01/22 08:27:36;;;;;;;19.77;14.60;;;2.30;99.90;;;;;;5076259;28;20173;-69
2023/01/22 08:30:03;;;;;;;22.47;17.00;;;2.10;99.90;;;;;;5075992;28;20202;-69
2023/01/22 08:32:29;;;;;;;23.00;17.70;;;2.30;99.90;;;;;;5058065;28;20412;-69
2023/01/22 08:34:54;;;;;;;17.47;13.67;;;2.40;99.90;;;;;;5075736;28;20772;-68
2023/01/22 08:37:24;;;;;;;21.20;16.27;;;2.30;99.90;;;;;;5074683;28;20501;-69
2023/01/22 08:39:49;;;;;;;23.20;16.90;;;2.20;99.90;;;;;;5076034;28;20615;-70
2023/01/22 08:42:15;;;;;;;21.90;16.80;;;2.20;99.90;;;;;;5057998;28;20416;-70
2023/01/22 08:44:41;;;;;;;19.70;15.93;;;2.40;99.90;;;;;;5076339;28;20164;-70
2023/01/22 08:47:06;;;;;;;22.47;16.13;;;2.20;99.90;;;;;;5075826;28;20922;-70
2023/01/22 08:49:32;;;;;;;19.23;15.20;;;2.40;99.90;;;;;;5075267;28;20549;-70
2023/01/22 08:51:58;;;;;;;20.03;15.20;;;2.50;99.90;;;;;;5057079;28;20281;-70
2023/01/22 08:54:25;;;;;;;17.90;14.53;;;2.30;99.90;;;;;;5075709;28;20204;-70
2023/01/22 08:56:50;;;;;;;20.80;16.30;;;2.20;99.90;;;;;;5075916;28;20194;-70
2023/01/22 08:59:16;;;;;;;20.43;16.20;;;2.30;99.90;;;;;;5075305;28;20444;-70
2023/01/22 09:01:41;;;;;;;20.40;15.13;;;2.50;99.90;;;;;;5057671;28;20256;-70
2023/01/22 09:04:09;;;;;;;21.10;15.27;;;2.70;99.90;;;;;;5076075;28;20174;-70
2023/01/22 09:06:35;;;;;;;19.70;14.70;;;2.80;99.90;;;;;;5074976;28;20178;-71
2023/01/22 09:09:01;;;;;;;20.23;15.73;;;2.70;99.90;;;;;;5075258;28;20408;-70
2023/01/22 09:11:30;;;;;;;22.37;17.53;;;2.50;99.90;;;;;;5075295;28;20514;-70
2023/01/22 09:13:56;;;;;;;21.03;15.97;;;2.50;99.90;;;;;;5075691;28;20528;-70
2023/01/22 09:16:23;;;;;;;22.50;17.37;;;2.50;99.90;;;;;;5075289;28;20399;-70
2023/01/22 09:18:49;;;;;;;21.03;16.20;;;2.60;99.90;;;;;;5057427;28;20541;-70
2023/01/22 09:21:14;;;;;;;22.93;16.60;;;2.80;99.90;;;;;;5075269;28;20511;-70
2023/01/22 09:23:40;;;;;;;22.77;17.57;;;3.00;99.90;;;;;;5074929;28;20207;-70
2023/01/22 09:26:05;;;;;;;21.90;15.90;;;2.60;99.90;;;;;;5075448;28;20241;-70
2023/01/22 09:28:31;;;;;;;23.33;16.30;;;2.60;99.90;;;;;;5057349;28;20169;-71
2023/01/22 09:30:57;;;;;;;22.03;17.33;;;2.60;99.90;;;;;;5075590;28;20554;-70
2023/01/22 09:33:22;;;;;;;22.17;17.07;;;2.60;99.90;;;;;;5075549;28;20176;-70
2023/01/22 09:35:48;;;;;;;20.73;16.47;;;2.40;99.90;;;;;;5074924;28;20162;-70
2023/01/22 09:38:14;;;;;;;22.30;17.27;;;2.40;99.90;;;;;;5072675;28;20210;-70
2023/01/22 09:40:53;;;;;;;20.50;16.60;;;2.30;99.90;;;;;;5076307;28;20224;-70
2023/01/22 09:43:36;;;;;;;23.67;17.83;;;2.30;99.90;;;;;;5076335;28;20396;-71
2023/01/22 09:46:07;;;;;;;21.13;15.60;;;2.50;99.90;;;;;;5047861;28;20854;-71
2023/01/22 09:48:38;;;;;;;24.40;18.33;;;2.60;99.90;;;;;;5057022;28;20995;-70
2023/01/22 09:51:04;;;;;;;20.83;15.80;;;2.70;99.90;;;;;;5056689;28;20461;-71
2023/01/22 09:53:31;;;;;;;22.37;17.07;;;2.90;99.90;;;;;;5039444;28;20445;-71
2023/01/22 09:55:57;;;;;;;24.07;18.67;;;3.10;99.90;;;;;;5038253;28;20815;-70
2023/01/22 09:58:24;;;;;;;21.50;16.60;;;3.20;99.90;;;;;;5055024;28;20744;-70
2023/01/22 10:00:58;;;;;;;21.07;15.93;;;3.20;99.90;;;;;;5066383;28;20424;-70
2023/01/22 10:03:44;;;;;;;27.47;20.70;;;2.90;99.90;;;;;;5075189;28;20467;-70
2023/01/22 10:06:17;;;;;;;26.03;20.37;;;2.70;99.90;;;;;;5058135;28;20412;-70
2023/01/22 10:08:58;;;;;;;27.07;18.93;;;2.80;99.90;;;;;;5076318;28;20416;-70
2023/01/22 10:11:24;;;;;;;29.93;24.83;;;2.90;99.90;;;;;;5074400;28;20544;-70
2023/01/22 10:13:54;;;;;;;23.53;17.30;;;3.10;99.90;;;;;;5074575;28;20401;-70
2023/01/22 10:16:20;;;;;;;26.13;18.20;;;2.80;99.90;;;;;;5074425;28;20421;-70
2023/01/22 10:19:00;;;;;;;25.33;17.90;;;2.90;99.90;;;;;;5074198;28;20440;-70
2023/01/22 10:21:29;;;;;;;22.37;17.07;;;2.70;99.90;;;;;;5073854;28;20257;-70
2023/01/22 10:23:56;;;;;;;26.43;19.23;;;3.00;99.90;;;;;;5055497;28;20413;-70
2023/01/22 10:26:47;;;;;;;26.47;18.50;;;3.00;99.90;;;;;;5055967;28;20404;-70
2023/01/22 10:29:33;;;;;;;23.10;16.43;;;3.20;99.90;;;;;;5074296;28;20889;-70
2023/01/22 10:32:25;;;;;;;17.50;14.63;;;3.00;99.90;;;;;;5073833;28;20522;-70
2023/01/22 10:35:02;;;;;;;23.27;18.00;;;3.10;99.90;;;;;;5065687;28;20412;-70
2023/01/22 10:37:28;;;;;;;20.63;17.10;;;3.00;99.90;;;;;;5073782;28;20406;-70
2023/01/22 10:39:58;;;;;;;24.90;18.90;;;3.20;99.90;;;;;;5074587;28;20429;-70
2023/01/22 10:42:27;;;;;;;17.10;14.93;;;3.50;99.90;;;;;;5056834;28;20512;-70
2023/01/22 10:45:08;;;;;;;20.20;15.53;;;3.60;99.90;;;;;;5075930;28;20434;-70
2023/01/22 10:47:33;;;;;;;21.60;16.37;;;3.70;99.90;;;;;;5056906;28;20404;-70
2023/01/22 10:50:08;;;;;;;25.67;19.93;;;3.60;99.90;;;;;;5075743;28;20451;-71
2023/01/22 10:52:41;;;;;;;20.23;15.50;;;3.80;99.90;;;;;;5074946;28;20253;-70
2023/01/22 10:55:20;;;;;;;24.07;17.20;;;3.60;99.90;;;;;;5074207;28;20396;-70
2023/01/22 10:57:52;;;;;;;18.63;14.93;;;3.60;99.90;;;;;;5073718;28;20438;-70
2023/01/22 11:00:18;;;;;;;24.60;18.87;;;3.70;99.90;;;;;;5073505;28;20431;-69
2023/01/22 11:02:46;;;;;;;23.97;17.97;;;3.40;99.90;;;;;;5055303;28;20408;-70
2023/01/22 11:05:23;;;;;;;22.53;17.27;;;3.50;99.90;;;;;;5073715;28;20169;-69
2023/01/22 11:07:52;;;;;;;20.63;16.40;;;3.60;99.90;;;;;;5054863;28;20465;-69
2023/01/22 11:10:24;;;;;;;22.13;16.70;;;3.80;99.90;;;;;;5073258;28;20494;-69
2023/01/22 11:13:03;;;;;;;17.50;15.33;;;4.00;99.90;;;;;;5073990;28;20385;-69
2023/01/22 11:15:39;;;;;;;21.67;16.30;;;4.00;99.90;;;;;;5073216;28;20383;-69
2023/01/22 11:18:06;;;;;;;21.40;15.83;;;3.90;99.90;;;;;;5073507;28;20404;-69
2023/01/22 11:20:48;;;;;;;19.60;14.20;;;3.60;99.90;;;;;;5073344;28;20477;-69
2023/01/22 11:23:22;;;;;;;20.03;16.47;;;3.50;99.90;;;;;;5072849;28;20431;-69
2023/01/22 11:26:02;;;;;;;20.00;15.23;;;3.80;99.90;;;;;;5073532;28;20380;-69
2023/01/22 11:28:46;;;;;;;21.23;15.60;;;3.50;99.90;;;;;;5055287;28;20415;-70
2023/01/22 11:31:33;;;;;;;20.77;15.80;;;3.10;99.90;;;;;;5073044;28;20494;-70
2023/01/22 11:34:31;;;;;;;21.83;17.63;;;3.10;99.90;;;;;;5055085;28;20397;-70
2023/01/22 11:37:05;;;;;;;25.20;19.17;;;3.40;99.90;;;;;;5028207;28;20420;-72
2023/01/22 11:39:46;;;;;;;19.43;15.30;;;3.60;99.90;;;;;;5052687;28;20420;-70
2023/01/22 11:42:34;;;;;;;17.43;14.00;;;3.70;99.90;;;;;;5053771;28;20815;-70
2023/01/22 11:45:26;;;;;;;21.47;17.40;;;3.60;99.90;;;;;;5053138;28;20401;-69
2023/01/22 11:48:42;;;;;;;17.50;13.77;;;3.50;99.90;;;;;;5036102;28;20393;-70
2023/01/22 11:51:25;;;;;;;17.57;13.60;;;3.30;99.90;;;;;;5012997;28;20471;-70
2023/01/22 11:54:18;;;;;;;18.40;14.87;;;3.40;99.90;;;;;;5072320;28;20472;-70
2023/01/22 11:56:57;;;;;;;21.17;17.10;;;3.80;99.90;;;;;;5073306;28;20377;-70
2023/01/22 11:59:57;;;;;;;21.10;15.30;;;3.60;99.90;;;;;;5072834;28;20376;-70
2023/01/22 12:02:48;;;;;;;18.67;15.60;;;3.80;99.90;;;;;;5077370;28;20720;-70
2023/01/22 12:05:16;;;;;;;15.53;12.83;;;4.00;99.90;;;;;;5076606;28;20377;-70
2023/01/22 12:08:04;;;;;;;18.73;15.50;;;3.90;99.90;;;;;;5075939;28;20396;-70
2023/01/22 12:10:35;;;;;;;15.53;13.87;;;3.50;99.90;;;;;;5058137;28;20447;-70
2023/01/22 12:13:18;;;;;;;18.00;15.30;;;3.40;99.90;;;;;;5076519;28;20392;-70
2023/01/22 12:16:10;;;;;;;16.90;13.70;;;3.30;99.90;;;;;;5076666;28;20973;-70
2023/01/22 12:18:57;;;;;;;16.60;14.13;;;3.40;99.90;;;;;;5030104;28;20417;-70
2023/01/22 12:21:37;;;;;;;17.97;14.43;;;3.10;99.90;;;;;;5056772;28;20786;-70
2023/01/22 12:24:16;;;;;;;18.00;14.53;;;3.40;99.90;;;;;;5055588;28;20385;-70
2023/01/22 12:26:51;;;;;;;18.90;13.20;;;3.70;99.90;;;;;;5056357;28;20386;-70
2023/01/22 12:29:27;;;;;;;17.10;14.60;;;3.60;99.90;;;;;;5055539;28;20467;-72
2023/01/22 12:32:09;;;;;;;17.60;14.87;;;3.60;99.90;;;;;;5037846;28;21030;-70
2023/01/22 12:34:54;;;;;;;19.63;15.33;;;3.60;99.90;;;;;;5056329;28;20385;-70
2023/01/22 12:37:24;;;;;;;17.43;13.47;;;4.00;99.90;;;;;;5058713;28;20420;-70
2023/01/22 12:40:14;;;;;;;16.27;13.77;;;3.50;99.90;;;;;;5058036;28;20432;-70
2023/01/22 12:42:50;;;;;;;18.00;13.90;;;3.70;99.90;;;;;;5075805;28;20471;-70
2023/01/22 12:45:26;;;;;;;16.73;13.33;;;3.80;99.90;;;;;;5077389;28;20483;-70
2023/01/22 12:48:24;;;;;;;15.77;13.17;;;3.90;99.90;;;;;;5058527;28;20396;-70
2023/01/22 12:50:53;;;;;;;17.20;13.20;;;3.50;99.90;;;;;;5075556;28;20506;-71
2023/01/22 12:53:27;;;;;;;19.07;15.50;;;3.60;99.90;;;;;;5075246;28;20407;-70
2023/01/22 12:56:11;;;;;;;16.33;13.70;;;3.80;99.90;;;;;;5075743;28;20476;-70